createdAt,value
2023-02-17T00:01:42.442Z,11.25
2023-02-17T00:07:18.866Z,11.33
2023-02-17T00:12:50.346Z,11.3
2023-02-17T00:18:22.040Z,11.17
2023-02-17T00:23:53.800Z,11.21
2023-02-17T00:29:25.775Z,11.17
2023-02-17T00:34:57.443Z,11.18
2023-02-17T00:40:29.169Z,11.09
2023-02-17T00:46:01.002Z,11.09
2023-02-17T00:51:32.579Z,11.18
2023-02-17T00:57:04.351Z,11.24
2023-02-17T01:02:36.029Z,11.28
2023-02-17T01:08:12.022Z,11.16
2023-02-17T01:13:44.032Z,11.15
2023-02-17T01:19:15.491Z,11.06
2023-02-17T01:24:47.211Z,11.03
2023-02-17T01:30:19.152Z,11.11
2023-02-17T01:35:50.652Z,11.1
2023-02-17T01:41:22.385Z,11.09
2023-02-17T01:46:54.429Z,11.0
2023-02-17T01:52:25.908Z,10.93
2023-02-17T01:57:57.762Z,11.03
2023-02-17T02:03:29.567Z,11.09
2023-02-17T02:09:05.460Z,11.02
2023-02-17T02:14:38.035Z,11.1
2023-02-17T02:20:09.704Z,11.13
2023-02-17T02:25:40.584Z,11.11
2023-02-17T02:31:12.518Z,11.05
2023-02-17T02:36:44.317Z,11.06
2023-02-17T02:42:16.261Z,11.06
2023-02-17T02:47:47.710Z,11.02
2023-02-17T02:53:19.270Z,11.12
2023-02-17T02:58:51.251Z,10.95
2023-02-17T03:04:23.171Z,11.04
2023-02-17T03:10:00.882Z,11.04
2023-02-17T03:15:32.783Z,10.98
2023-02-17T03:21:04.431Z,10.98
2023-02-17T03:26:36.199Z,11.02
2023-02-17T03:32:07.948Z,11.05
2023-02-17T03:37:39.476Z,11.14
2023-02-17T03:43:11.410Z,11.08
2023-02-17T03:48:42.961Z,10.98
2023-02-17T03:54:14.662Z,10.99
2023-02-17T03:59:46.655Z,11.09
2023-02-17T04:05:18.059Z,11.2
2023-02-17T04:10:56.498Z,11.11
2023-02-17T04:16:28.015Z,10.98
2023-02-17T04:21:59.707Z,11.2
2023-02-17T04:27:31.922Z,10.99
2023-02-17T04:33:03.332Z,11.14
2023-02-17T04:38:34.880Z,10.97
2023-02-17T04:44:06.572Z,10.95
2023-02-17T04:49:38.480Z,10.91
2023-02-17T04:55:09.983Z,10.86
2023-02-17T05:00:41.688Z,10.88
2023-02-17T05:06:13.924Z,10.89
2023-02-17T05:11:49.821Z,11.04
2023-02-17T05:17:21.379Z,11.08
2023-02-17T05:22:53.073Z,10.93
2023-02-17T05:28:25.139Z,10.94
2023-02-17T05:33:56.517Z,10.92
2023-02-17T05:39:28.415Z,10.79
2023-02-17T05:45:00.258Z,10.97
2023-02-17T05:50:31.897Z,11.06
2023-02-17T05:56:03.479Z,11.06
2023-02-17T06:01:37.092Z,10.93
2023-02-17T06:07:07.165Z,10.83
2023-02-17T06:12:45.122Z,10.9
2023-02-17T06:18:16.820Z,11.02
2023-02-17T06:23:48.554Z,10.92
2023-02-17T06:29:20.249Z,10.93
2023-02-17T06:34:51.964Z,10.92
2023-02-17T06:40:23.770Z,11.04
2023-02-17T06:45:55.678Z,11.06
2023-02-17T06:51:27.409Z,10.95
2023-02-17T06:56:58.909Z,11.03
2023-02-17T07:02:30.619Z,11.06
2023-02-17T07:08:02.357Z,11.0
2023-02-17T07:13:40.772Z,11.11
2023-02-17T07:19:12.217Z,11.03
2023-02-17T07:24:43.908Z,10.99
2023-02-17T07:30:15.658Z,11.15
2023-02-17T07:35:47.527Z,11.07
2023-02-17T07:41:19.106Z,11.04
2023-02-17T07:46:50.981Z,11.08
2023-02-17T07:52:22.532Z,11.16
2023-02-17T07:57:54.404Z,11.21
2023-02-17T08:03:25.955Z,11.22
2023-02-17T08:08:58.115Z,11.35
2023-02-17T08:14:36.009Z,11.45
2023-02-17T08:20:08.893Z,11.39
2023-02-17T08:25:39.237Z,11.47
2023-02-17T08:31:11.366Z,11.46
2023-02-17T08:36:42.885Z,11.51
2023-02-17T08:42:14.657Z,11.59
2023-02-17T08:47:46.334Z,11.44
2023-02-17T08:53:17.885Z,11.43
2023-02-17T08:58:49.615Z,11.4
2023-02-17T09:04:21.717Z,11.43
2023-02-17T09:09:53.312Z,11.39
2023-02-17T09:15:29.722Z,11.36
2023-02-17T09:21:01.018Z,11.45
2023-02-17T09:26:32.689Z,11.63
2023-02-17T09:32:04.568Z,11.77
2023-02-17T09:37:36.174Z,12.02
2023-02-17T09:43:07.837Z,12.19
2023-02-17T09:48:39.595Z,12.29
2023-02-17T09:54:11.472Z,12.88
2023-02-17T09:59:43.322Z,13.31
2023-02-17T10:05:14.818Z,13.12
2023-02-17T10:10:46.447Z,12.98
2023-02-17T10:16:22.672Z,13.24
2023-02-17T10:21:54.352Z,13.63
2023-02-17T10:27:26.268Z,13.78
2023-02-17T10:32:57.781Z,13.78
2023-02-17T10:38:29.590Z,14.06
2023-02-17T10:44:01.192Z,14.02
2023-02-17T10:49:33.661Z,14.03
2023-02-17T10:55:08.749Z,14.04
2023-02-17T11:00:36.482Z,14.23
2023-02-17T11:06:08.487Z,14.35
2023-02-17T11:11:40.705Z,14.41
2023-02-17T11:17:18.226Z,14.41
2023-02-17T11:22:49.766Z,14.37
2023-02-17T11:28:23.781Z,14.45
2023-02-17T11:33:55.237Z,14.46
2023-02-17T11:39:25.241Z,14.47
2023-02-17T11:44:57.098Z,14.35
2023-02-17T11:50:40.306Z,14.43
2023-02-17T11:56:00.212Z,14.51
2023-02-17T12:01:31.932Z,14.53
2023-02-17T12:07:03.623Z,14.53
2023-02-17T12:12:35.682Z,14.55
2023-02-17T12:18:11.528Z,14.58
2023-02-17T12:23:43.202Z,14.59
2023-02-17T12:29:15.293Z,14.59
2023-02-17T12:34:46.707Z,14.6
2023-02-17T12:40:18.707Z,14.68
2023-02-17T12:45:50.198Z,14.65
2023-02-17T12:51:22.629Z,14.65
2023-02-17T12:56:53.925Z,14.81
2023-02-17T13:02:25.602Z,14.67
2023-02-17T13:07:57.353Z,14.72
2023-02-17T13:13:29.172Z,14.75
2023-02-17T13:19:05.234Z,14.88
2023-02-17T13:24:36.785Z,14.94
2023-02-17T13:30:08.548Z,15.06
2023-02-17T13:35:40.224Z,15.27
2023-02-17T13:41:11.997Z,15.32
2023-02-17T13:46:43.716Z,15.44
2023-02-17T13:52:15.784Z,15.57
2023-02-17T13:57:47.350Z,15.47
2023-02-17T14:03:19.110Z,15.34
2023-02-17T14:08:50.912Z,15.21
2023-02-17T14:14:22.273Z,15.42
2023-02-17T14:20:00.585Z,15.68
2023-02-17T14:25:32.203Z,15.49
2023-02-17T14:31:04.023Z,15.61
2023-02-17T14:36:35.753Z,15.53
2023-02-17T14:42:07.726Z,15.25
2023-02-17T14:47:39.087Z,15.09
2023-02-17T14:53:11.420Z,15.25
2023-02-17T14:58:42.656Z,15.23
2023-02-17T15:04:14.255Z,15.4
2023-02-17T15:09:45.971Z,15.11
2023-02-17T15:15:18.097Z,15.02
2023-02-17T15:20:54.037Z,14.91
2023-02-17T15:26:25.561Z,14.74
2023-02-17T15:31:57.552Z,14.67
2023-02-17T15:37:29.361Z,14.74
2023-02-17T15:43:00.962Z,14.77
2023-02-17T15:48:32.466Z,14.5
2023-02-17T15:54:04.411Z,14.39
2023-02-17T15:59:36.179Z,14.31
2023-02-17T16:05:07.618Z,14.08
2023-02-17T16:10:39.435Z,13.93
2023-02-17T16:16:11.378Z,13.86
2023-02-17T16:21:47.540Z,13.66
2023-02-17T16:27:19.026Z,13.87
2023-02-17T16:32:51.731Z,13.65
2023-02-17T16:38:23.098Z,13.64
2023-02-17T16:43:54.223Z,13.74
2023-02-17T16:49:25.918Z,13.67
2023-02-17T16:54:57.645Z,13.87
2023-02-17T17:00:29.388Z,13.75
2023-02-17T17:06:01.070Z,13.73
2023-02-17T17:11:32.912Z,13.77
2023-02-17T17:17:04.657Z,13.75
2023-02-17T17:22:40.821Z,13.8
2023-02-17T17:28:12.545Z,13.71
2023-02-17T17:33:44.212Z,13.69
2023-02-17T17:39:15.804Z,13.69
2023-02-17T17:44:47.573Z,13.6
2023-02-17T17:50:19.430Z,13.63
2023-02-17T17:55:51.238Z,13.62
2023-02-17T18:01:22.951Z,13.62
2023-02-17T18:06:54.730Z,13.79
2023-02-17T18:12:26.716Z,13.76
2023-02-17T18:17:58.258Z,13.7
2023-02-17T18:23:36.422Z,13.99
2023-02-17T18:29:08.401Z,14.06
2023-02-17T18:34:39.817Z,13.83
2023-02-17T18:40:11.569Z,13.94
2023-02-17T18:45:43.303Z,14.17
2023-02-17T18:51:15.050Z,14.23
2023-02-17T18:56:46.924Z,13.8
2023-02-17T19:02:18.514Z,13.74
2023-02-17T19:07:50.173Z,13.64
2023-02-17T19:13:23.250Z,13.23
2023-02-17T19:18:54.737Z,13.27
2023-02-17T19:24:30.996Z,13.15
2023-02-17T19:30:02.622Z,13.18
2023-02-17T19:35:34.310Z,13.1
2023-02-17T19:41:06.283Z,12.94
2023-02-17T19:46:37.923Z,12.7
2023-02-17T19:52:09.420Z,12.35
2023-02-17T19:57:41.261Z,12.54
2023-02-17T20:03:13.119Z,12.68
2023-02-17T20:08:44.611Z,12.54
2023-02-17T20:14:16.514Z,12.58
2023-02-17T20:19:48.269Z,12.62
2023-02-17T20:25:24.428Z,12.64
2023-02-17T20:30:56.006Z,12.67
2023-02-17T20:36:27.869Z,12.46
2023-02-17T20:42:00.051Z,12.59
2023-02-17T20:47:31.485Z,12.48
2023-02-17T20:53:03.028Z,12.53
2023-02-17T20:58:34.586Z,12.51
2023-02-17T21:04:06.645Z,12.62
2023-02-17T21:09:38.340Z,12.66
2023-02-17T21:15:10.032Z,12.6
2023-02-17T21:20:41.471Z,12.66
2023-02-17T21:26:17.684Z,12.64
2023-02-17T21:31:49.494Z,12.58
2023-02-17T21:37:21.392Z,12.63
2023-02-17T21:42:53.463Z,12.79
2023-02-17T21:48:24.567Z,12.69
2023-02-17T21:53:56.447Z,12.73
2023-02-17T21:59:28.167Z,12.84
2023-02-17T22:04:59.693Z,12.8
2023-02-17T22:10:31.436Z,12.92
2023-02-17T22:16:03.179Z,12.87
2023-02-17T22:21:35.316Z,12.87
2023-02-17T22:27:13.300Z,12.85
2023-02-17T22:32:44.719Z,12.87
2023-02-17T22:38:16.420Z,13.0
2023-02-17T22:43:48.250Z,12.94
2023-02-17T22:49:19.870Z,12.92
2023-02-17T22:54:51.604Z,12.9
2023-02-17T23:00:23.292Z,13.0
2023-02-17T23:05:55.073Z,12.94
2023-02-17T23:11:26.744Z,12.97
2023-02-17T23:16:58.563Z,13.06
2023-02-17T23:22:30.387Z,13.18
2023-02-17T23:28:06.420Z,13.06
2023-02-17T23:33:38.440Z,13.14
2023-02-17T23:39:09.869Z,12.9
2023-02-17T23:44:41.822Z,13.1
2023-02-17T23:50:14.556Z,13.11
2023-02-17T23:55:45.314Z,13.05
